createdAt,value
2018-05-02T00:01:14.091Z,94684.14
2018-05-02T00:03:42.646Z,94676.47
2018-05-02T00:06:11.207Z,94675.87
2018-05-02T00:08:39.768Z,94671.85
2018-05-02T00:11:08.129Z,94674.57
2018-05-02T00:13:36.700Z,94673.00
2018-05-02T00:16:06.045Z,94672.53
2018-05-02T00:18:34.602Z,94676.98
2018-05-02T00:21:03.188Z,94673.41
2018-05-02T00:23:31.741Z,94680.95
2018-05-02T00:26:00.285Z,94683.05
2018-05-02T00:28:28.849Z,94684.73
2018-05-02T00:30:57.440Z,94684.05
2018-05-02T00:33:25.995Z,94682.88
2018-05-02T00:35:54.552Z,94680.94
2018-05-02T00:38:23.109Z,94678.37
2018-05-02T00:40:52.485Z,94682.51
2018-05-02T00:43:20.827Z,94679.21
2018-05-02T00:45:49.384Z,94675.64
2018-05-02T00:48:17.996Z,94682.63
2018-05-02T00:50:46.557Z,94680.02
2018-05-02T00:53:15.111Z,94682.28
2018-05-02T00:55:43.659Z,94682.51
2018-05-02T00:58:11.981Z,94681.78
2018-05-02T01:00:40.585Z,94679.43
2018-05-02T01:03:09.148Z,94683.50
2018-05-02T01:05:37.743Z,94680.55
2018-05-02T01:08:06.071Z,94685.94
2018-05-02T01:10:34.675Z,94683.37
2018-05-02T01:13:03.270Z,94685.03
2018-05-02T01:15:32.027Z,94687.91
2018-05-02T01:18:00.627Z,94689.75
2018-05-02T01:20:29.174Z,94691.20
2018-05-02T01:22:57.759Z,94689.59
2018-05-02T01:25:26.028Z,94693.68
2018-05-02T01:27:54.623Z,94691.72
2018-05-02T01:30:23.215Z,94695.17
2018-05-02T01:32:51.774Z,94688.50
2018-05-02T01:35:20.324Z,94691.79
2018-05-02T01:37:48.871Z,94691.27
2018-05-02T01:40:17.428Z,94687.98
2018-05-02T01:42:46.029Z,94691.77
2018-05-02T01:45:14.587Z,94684.88
2018-05-02T01:47:43.182Z,94687.81
2018-05-02T01:50:11.730Z,94687.94
2018-05-02T01:52:40.278Z,94683.00
2018-05-02T01:55:08.876Z,94692.07
2018-05-02T01:57:37.437Z,94692.13
2018-05-02T02:00:06.298Z,94693.45
2018-05-02T02:02:34.859Z,94683.73
2018-05-02T02:05:03.451Z,94681.61
2018-05-02T02:07:31.433Z,94685.91
2018-05-02T02:09:59.995Z,94675.88
2018-05-02T02:12:28.260Z,94685.50
2018-05-02T02:14:56.611Z,94679.78
2018-05-02T02:17:25.166Z,94676.73
2018-05-02T02:19:53.730Z,94680.20
2018-05-02T02:22:22.295Z,94678.89
2018-05-02T02:24:50.856Z,94682.05
2018-05-02T02:27:19.451Z,94683.34
2018-05-02T02:29:48.011Z,94693.47
2018-05-02T02:32:16.595Z,94696.78
2018-05-02T02:34:45.792Z,94698.91
2018-05-02T02:37:14.409Z,94694.20
2018-05-02T02:39:42.983Z,94699.20
2018-05-02T02:42:11.545Z,94698.25
2018-05-02T02:44:40.125Z,94697.84
2018-05-02T02:47:08.727Z,94705.09
2018-05-02T02:49:37.279Z,94700.84
2018-05-02T02:52:05.832Z,94708.83
2018-05-02T02:54:34.217Z,94709.20
2018-05-02T02:57:02.791Z,94713.83
2018-05-02T02:59:31.344Z,94716.81
2018-05-02T03:01:59.906Z,94719.13
2018-05-02T03:04:28.476Z,94714.78
2018-05-02T03:06:57.039Z,94717.56
2018-05-02T03:09:25.617Z,94720.58
2018-05-02T03:11:54.223Z,94724.31
2018-05-02T03:14:22.816Z,94725.20
2018-05-02T03:16:51.445Z,94732.66
2018-05-02T03:19:20.032Z,94729.34
2018-05-02T03:21:48.642Z,94732.97
2018-05-02T03:24:17.220Z,94732.21
2018-05-02T03:26:45.829Z,94735.52
2018-05-02T03:29:14.435Z,94733.13
2018-05-02T03:31:43.108Z,94744.06
2018-05-02T03:34:11.673Z,94740.44
2018-05-02T03:36:40.285Z,94741.02
2018-05-02T03:39:08.855Z,94745.50
2018-05-02T03:41:37.425Z,94745.89
2018-05-02T03:44:06.018Z,94742.09
2018-05-02T03:46:34.592Z,94744.45
2018-05-02T03:49:03.192Z,94748.80
2018-05-02T03:51:31.745Z,94745.67
2018-05-02T03:54:00.347Z,94750.23
2018-05-02T03:56:28.896Z,94745.67
2018-05-02T03:58:57.452Z,94746.88
2018-05-02T04:01:37.151Z,94750.09
2018-05-02T04:04:16.847Z,94747.38
2018-05-02T04:09:53.715Z,94749.22
2018-05-02T04:12:22.079Z,94751.58
2018-05-02T04:14:50.642Z,94753.17
2018-05-02T04:17:19.235Z,94755.64
2018-05-02T04:19:47.812Z,94751.20
2018-05-02T04:22:16.375Z,94754.30
2018-05-02T04:24:44.985Z,94753.96
2018-05-02T04:27:13.552Z,94754.05
2018-05-02T04:29:42.186Z,94760.80
2018-05-02T04:32:10.955Z,94751.22
2018-05-02T04:34:39.536Z,94749.30
2018-05-02T04:37:08.099Z,94752.41
2018-05-02T04:39:36.699Z,94759.98
2018-05-02T04:42:05.291Z,94761.43
2018-05-02T04:44:33.886Z,94758.72
2018-05-02T04:47:02.200Z,94758.87
2018-05-02T04:49:30.811Z,94760.26
2018-05-02T04:51:59.385Z,94753.17
2018-05-02T04:54:27.959Z,94750.49
2018-05-02T04:56:56.520Z,94749.41
2018-05-02T04:59:25.100Z,94743.98
2018-05-02T05:01:53.866Z,94739.23
2018-05-02T05:04:22.417Z,94742.84
2018-05-02T05:06:50.988Z,94742.69
2018-05-02T05:09:19.539Z,94744.85
2018-05-02T05:11:48.157Z,94743.67
2018-05-02T05:14:16.391Z,94742.19
2018-05-02T05:16:44.943Z,94746.27
2018-05-02T05:19:13.499Z,94742.09
2018-05-02T05:21:42.173Z,94739.98
2018-05-02T05:24:11.461Z,94753.22
2018-05-02T05:26:40.025Z,94749.73
2018-05-02T05:29:08.629Z,94750.60
2018-05-02T05:31:37.179Z,94750.48
2018-05-02T05:34:05.407Z,94752.17
2018-05-02T05:36:33.958Z,94750.13
2018-05-02T05:39:03.152Z,94752.78
2018-05-02T05:41:31.765Z,94755.25
2018-05-02T05:44:00.324Z,94758.75
2018-05-02T05:46:28.915Z,94757.93
2018-05-02T05:48:57.479Z,94759.74
2018-05-02T05:51:26.038Z,94751.12
2018-05-02T05:53:54.678Z,94755.63
2018-05-02T05:56:23.397Z,94761.59
2018-05-02T05:58:51.994Z,94755.52
2018-05-02T06:01:20.596Z,94760.29
2018-05-02T06:03:49.229Z,94766.91
2018-05-02T06:06:17.846Z,94764.16
2018-05-02T06:08:46.412Z,94762.02
2018-05-02T06:11:14.990Z,94762.90
2018-05-02T06:13:43.567Z,94762.65
2018-05-02T06:16:12.124Z,94759.27
2018-05-02T06:18:40.710Z,94760.46
2018-05-02T06:21:09.455Z,94761.10
2018-05-02T06:23:38.031Z,94756.75
2018-05-02T06:26:06.649Z,94758.41
2018-05-02T06:28:35.348Z,94759.16
2018-05-02T06:31:03.977Z,94753.05
2018-05-02T06:33:32.595Z,94759.02
2018-05-02T06:36:01.169Z,94752.16
2018-05-02T06:38:29.727Z,94754.59
2018-05-02T06:40:58.302Z,94749.83
2018-05-02T06:43:26.916Z,94748.36
2018-05-02T06:45:55.677Z,94744.23
2018-05-02T06:48:24.087Z,94747.98
2018-05-02T06:50:52.704Z,94748.27
2018-05-02T06:53:21.275Z,94749.37
2018-05-02T06:55:49.648Z,94759.27
2018-05-02T06:58:18.209Z,94750.37
2018-05-02T07:00:46.578Z,94749.50
2018-05-02T07:03:15.136Z,94748.72
2018-05-02T07:05:43.835Z,94745.64
2018-05-02T07:08:12.394Z,94745.95
2018-05-02T07:10:41.307Z,94745.05
2018-05-02T07:13:09.933Z,94733.30
2018-05-02T07:15:38.536Z,94740.36
2018-05-02T07:18:07.153Z,94738.27
2018-05-02T07:20:35.758Z,94735.23
2018-05-02T07:23:04.354Z,94740.95
2018-05-02T07:25:32.919Z,94738.70
2018-05-02T07:28:01.533Z,94733.64
2018-05-02T07:30:30.160Z,94737.91
2018-05-02T07:32:58.849Z,94729.40
2018-05-02T07:35:27.603Z,94729.25
2018-05-02T07:37:56.171Z,94723.38
2018-05-02T07:40:24.775Z,94724.48
2018-05-02T07:42:53.527Z,94721.69
2018-05-02T07:45:22.132Z,94718.36
2018-05-02T07:47:50.730Z,94721.16
2018-05-02T07:50:19.296Z,94713.81
2018-05-02T07:52:47.872Z,94709.11
2018-05-02T07:55:16.510Z,94706.16
2018-05-02T07:57:45.127Z,94707.08
2018-05-02T08:00:13.799Z,94704.22
2018-05-02T08:02:42.377Z,94701.55
2018-05-02T08:05:11.184Z,94699.24
2018-05-02T08:07:39.794Z,94693.77
2018-05-02T08:10:08.428Z,94694.80
2018-05-02T08:12:37.088Z,94686.73
2018-05-02T08:15:04.972Z,94685.23
2018-05-02T08:17:33.535Z,94683.75
2018-05-02T08:20:02.124Z,94682.91
2018-05-02T08:22:30.695Z,94681.37
2018-05-02T08:25:00.412Z,94678.61
2018-05-02T08:27:30.967Z,94676.73
2018-05-02T08:29:59.935Z,94671.66
2018-05-02T08:32:28.500Z,94676.28
2018-05-02T08:34:57.092Z,94669.56
2018-05-02T08:37:25.668Z,94669.67
2018-05-02T08:39:54.235Z,94673.23
2018-05-02T08:42:22.802Z,94662.56
2018-05-02T08:44:51.379Z,94664.39
2018-05-02T08:47:19.935Z,94660.34
2018-05-02T08:49:48.516Z,94659.88
2018-05-02T08:52:17.277Z,94657.75
2018-05-02T08:54:45.846Z,94657.74
2018-05-02T08:57:14.427Z,94657.70
2018-05-02T08:59:42.987Z,94659.03
2018-05-02T09:02:11.543Z,94656.98
2018-05-02T09:04:40.103Z,94658.03
2018-05-02T09:07:08.662Z,94660.69
2018-05-02T09:09:37.228Z,94654.84
2018-05-02T09:12:05.830Z,94661.84
2018-05-02T09:14:34.374Z,94653.70
2018-05-02T09:17:02.931Z,94661.84
2018-05-02T09:19:31.486Z,94650.44
2018-05-02T09:22:00.068Z,94652.27
2018-05-02T09:24:28.646Z,94644.63
2018-05-02T09:26:57.234Z,94651.05
2018-05-02T09:29:25.799Z,94649.95
2018-05-02T09:31:54.367Z,94642.37
2018-05-02T09:34:23.120Z,94641.14
2018-05-02T09:36:51.685Z,94634.19
2018-05-02T09:39:20.253Z,94638.41
2018-05-02T09:41:48.811Z,94632.84
2018-05-02T09:44:17.439Z,94627.66
2018-05-02T09:46:45.999Z,94628.82
2018-05-02T09:49:14.581Z,94624.94
2018-05-02T09:51:43.156Z,94624.99
2018-05-02T09:54:11.744Z,94625.48
2018-05-02T09:56:40.343Z,94623.31
2018-05-02T09:59:08.916Z,94617.53
2018-05-02T10:01:37.463Z,94614.86
2018-05-02T10:04:06.032Z,94614.89
2018-05-02T10:06:34.593Z,94607.64
2018-05-02T10:09:03.163Z,94609.75
2018-05-02T10:11:31.763Z,94603.34
2018-05-02T10:14:00.397Z,94603.65
2018-05-02T10:16:28.981Z,94596.61
2018-05-02T10:18:57.617Z,94599.30
2018-05-02T10:21:26.223Z,94595.36
2018-05-02T10:23:54.793Z,94591.27
2018-05-02T10:26:23.423Z,94585.98
2018-05-02T10:28:52.197Z,94581.99
2018-05-02T10:31:20.793Z,94592.58
2018-05-02T10:33:49.405Z,94580.88
2018-05-02T10:36:17.981Z,94581.56
2018-05-02T10:38:46.562Z,94579.53
2018-05-02T10:41:15.135Z,94583.27
2018-05-02T10:43:43.694Z,94576.30
2018-05-02T10:46:12.266Z,94570.52
2018-05-02T10:48:40.917Z,94576.04
2018-05-02T10:51:09.523Z,94575.48
2018-05-02T10:53:38.163Z,94572.00
2018-05-02T10:56:06.770Z,94569.65
2018-05-02T10:58:35.944Z,94569.66
2018-05-02T11:01:04.205Z,94569.40
2018-05-02T11:03:32.911Z,94565.00
2018-05-02T11:06:01.149Z,94553.16
2018-05-02T11:08:30.571Z,94553.90
2018-05-02T11:10:59.185Z,94553.50
2018-05-02T11:13:27.783Z,94563.16
2018-05-02T11:15:57.707Z,94561.33
2018-05-02T11:18:26.328Z,94554.85
2018-05-02T11:20:54.907Z,94544.66
2018-05-02T11:23:23.478Z,94545.42
2018-05-02T11:25:52.033Z,94547.58
2018-05-02T11:28:20.715Z,94545.86
2018-05-02T11:30:49.449Z,94549.05
2018-05-02T11:33:18.050Z,94540.23
2018-05-02T11:35:47.441Z,94532.73
2018-05-02T11:38:16.052Z,94533.75
2018-05-02T11:40:44.642Z,94536.83
2018-05-02T11:43:13.204Z,94518.02
2018-05-02T11:45:42.279Z,94513.98
2018-05-02T11:48:10.900Z,94511.38
2018-05-02T11:50:39.460Z,94505.32
2018-05-02T11:53:08.015Z,94498.98
2018-05-02T11:55:36.596Z,94502.45
2018-05-02T11:58:05.226Z,94496.33
2018-05-02T12:00:33.832Z,94489.41
2018-05-02T12:03:02.432Z,94487.73
2018-05-02T12:05:31.014Z,94481.50
2018-05-02T12:07:59.588Z,94475.98
2018-05-02T12:10:28.162Z,94469.55
2018-05-02T12:12:56.748Z,94478.97
2018-05-02T12:15:25.357Z,94477.98
2018-05-02T12:17:53.924Z,94469.02
2018-05-02T12:20:22.477Z,94462.91
2018-05-02T12:22:51.077Z,94461.80
2018-05-02T12:25:19.631Z,94455.28
2018-05-02T12:27:48.264Z,94446.47
2018-05-02T12:30:17.024Z,94447.06
2018-05-02T12:32:45.644Z,94442.27
2018-05-02T12:35:14.199Z,94443.56
2018-05-02T12:37:42.758Z,94438.97
2018-05-02T12:40:11.307Z,94442.27
2018-05-02T12:42:39.862Z,94434.14
2018-05-02T12:45:08.451Z,94427.02
2018-05-02T12:47:37.056Z,94419.33
2018-05-02T12:50:05.618Z,94415.69
2018-05-02T12:52:34.197Z,94416.94
2018-05-02T12:55:02.760Z,94416.70
2018-05-02T12:57:31.318Z,94414.30
2018-05-02T12:59:59.925Z,94408.38
2018-05-02T13:02:28.519Z,94409.38
2018-05-02T13:04:57.236Z,94415.86
2018-05-02T13:07:25.800Z,94408.83
2018-05-02T13:09:54.421Z,94408.38
2018-05-02T13:12:23.008Z,94409.84
2018-05-02T13:14:51.577Z,94406.33
2018-05-02T13:17:20.134Z,94404.43
2018-05-02T13:19:52.519Z,94400.98
2018-05-02T13:22:21.188Z,94407.13
2018-05-02T13:24:49.967Z,94415.29
2018-05-02T13:27:19.072Z,94404.16
2018-05-02T13:29:47.615Z,94396.88
2018-05-02T13:32:16.167Z,94395.69
2018-05-02T13:34:44.757Z,94397.38
2018-05-02T13:37:13.317Z,94391.69
2018-05-02T13:39:41.871Z,94379.67
2018-05-02T13:42:10.471Z,94379.81
2018-05-02T13:44:39.082Z,94392.75
2018-05-02T13:47:07.645Z,94392.48
2018-05-02T13:49:36.203Z,94392.33
2018-05-02T13:52:04.759Z,94387.25
2018-05-02T13:54:33.616Z,94388.77
2018-05-02T13:57:02.194Z,94391.84
2018-05-02T13:59:30.828Z,94397.56
2018-05-02T14:01:59.396Z,94395.40
2018-05-02T14:04:29.020Z,94395.41
2018-05-02T14:06:57.576Z,94402.10
2018-05-02T14:09:26.173Z,94401.59
2018-05-02T14:11:54.825Z,94394.72
2018-05-02T14:14:23.474Z,94403.55
2018-05-02T14:16:52.049Z,94407.97
2018-05-02T14:19:20.604Z,94412.74
2018-05-02T14:21:49.188Z,94417.22
2018-05-02T14:24:17.754Z,94412.48
2018-05-02T14:26:46.426Z,94412.79
2018-05-02T14:29:14.985Z,94420.49
2018-05-02T14:31:43.547Z,94427.50
2018-05-02T14:34:12.098Z,94436.84
2018-05-02T14:36:40.665Z,94430.31
2018-05-02T14:39:09.234Z,94435.71
2018-05-02T14:41:37.788Z,94430.53
2018-05-02T14:44:06.413Z,94436.60
2018-05-02T14:46:34.969Z,94427.91
2018-05-02T14:49:03.199Z,94429.36
2018-05-02T14:51:31.776Z,94432.30
2018-05-02T14:54:00.366Z,94437.55
2018-05-02T14:56:28.936Z,94436.86
2018-05-02T14:58:57.528Z,94438.94
2018-05-02T15:01:26.172Z,94442.50
2018-05-02T15:03:54.860Z,94441.53
2018-05-02T15:06:23.412Z,94440.95
2018-05-02T15:08:51.973Z,94440.77
2018-05-02T15:11:20.549Z,94447.55
2018-05-02T15:13:49.132Z,94446.49
2018-05-02T15:16:17.684Z,94459.06
2018-05-02T15:18:46.255Z,94462.26
2018-05-02T15:21:14.888Z,94459.47
2018-05-02T15:23:43.457Z,94465.23
2018-05-02T15:26:12.059Z,94465.27
2018-05-02T15:28:40.640Z,94465.70
2018-05-02T15:31:09.238Z,94469.47
2018-05-02T15:33:37.825Z,94468.30
2018-05-02T15:36:06.439Z,94467.90
2018-05-02T15:38:34.994Z,94471.66
2018-05-02T15:41:03.568Z,94473.56
2018-05-02T15:43:32.155Z,94472.22
2018-05-02T15:46:00.723Z,94478.76
2018-05-02T15:48:29.293Z,94475.66
2018-05-02T15:50:57.854Z,94475.98
2018-05-02T15:53:26.411Z,94479.21
2018-05-02T15:55:55.035Z,94478.73
2018-05-02T15:58:23.788Z,94482.01
2018-05-02T16:00:52.472Z,94485.58
2018-05-02T16:03:21.037Z,94483.61
2018-05-02T16:05:49.619Z,94480.81
2018-05-02T16:08:18.165Z,94481.41
2018-05-02T16:10:46.799Z,94486.80
2018-05-02T16:13:16.155Z,94489.65
2018-05-02T16:15:44.703Z,94483.89
2018-05-02T16:18:13.265Z,94493.41
2018-05-02T16:20:41.887Z,94492.87
2018-05-02T16:23:10.449Z,94484.32
2018-05-02T16:25:39.864Z,94492.89
2018-05-02T16:28:08.644Z,94486.94
2018-05-02T16:30:37.284Z,94481.89
2018-05-02T16:33:05.839Z,94486.02
2018-05-02T16:35:34.827Z,94490.47
2018-05-02T16:38:03.455Z,94483.57
2018-05-02T16:40:33.150Z,94486.67
2018-05-02T16:43:01.855Z,94490.20
2018-05-02T16:45:30.470Z,94493.26
2018-05-02T16:48:00.346Z,94493.11
2018-05-02T16:50:29.034Z,94493.00
2018-05-02T16:52:57.585Z,94490.53
2018-05-02T16:55:26.190Z,94483.68
2018-05-02T16:57:54.807Z,94486.58
2018-05-02T17:00:23.390Z,94483.76
2018-05-02T17:02:51.988Z,94481.32
2018-05-02T17:05:20.544Z,94482.94
2018-05-02T17:07:48.853Z,94481.34
2018-05-02T17:10:17.549Z,94486.66
2018-05-02T17:12:46.139Z,94492.36
2018-05-02T17:15:14.694Z,94494.44
2018-05-02T17:17:43.364Z,94493.22
2018-05-02T17:20:12.061Z,94490.95
2018-05-02T17:22:40.889Z,94495.28
2018-05-02T17:25:09.471Z,94494.17
2018-05-02T17:27:38.032Z,94498.13
2018-05-02T17:30:06.644Z,94493.92
2018-05-02T17:32:35.409Z,94496.76
2018-05-02T17:35:03.881Z,94498.03
2018-05-02T17:37:32.655Z,94491.34
2018-05-02T17:40:01.231Z,94503.89
2018-05-02T17:42:29.794Z,94501.03
2018-05-02T17:44:58.382Z,94501.56
2018-05-02T17:47:26.945Z,94504.80
2018-05-02T17:49:55.586Z,94499.38
2018-05-02T17:52:24.153Z,94503.80
2018-05-02T17:54:52.727Z,94508.43
2018-05-02T17:57:22.104Z,94505.55
2018-05-02T17:59:50.776Z,94505.33
2018-05-02T18:02:19.372Z,94502.34
2018-05-02T18:04:47.953Z,94507.14
2018-05-02T18:07:16.519Z,94504.51
2018-05-02T18:09:45.136Z,94510.21
2018-05-02T18:12:13.700Z,94503.31
2018-05-02T18:14:42.327Z,94502.70
2018-05-02T18:17:10.877Z,94512.16
2018-05-02T18:19:39.513Z,94510.58
2018-05-02T18:22:08.073Z,94505.91
2018-05-02T18:24:36.673Z,94515.24
2018-05-02T18:27:05.928Z,94516.44
2018-05-02T18:29:34.521Z,94526.19
2018-05-02T18:32:03.088Z,94525.92
2018-05-02T18:34:31.707Z,94527.53
2018-05-02T18:37:05.132Z,94532.86
2018-05-02T18:39:39.653Z,94535.00
2018-05-02T18:42:08.332Z,94534.19
2018-05-02T18:44:36.900Z,94541.50
2018-05-02T18:47:05.694Z,94543.11
2018-05-02T18:49:34.232Z,94546.19
2018-05-02T18:52:02.851Z,94549.25
2018-05-02T18:54:31.495Z,94552.06
2018-05-02T18:57:00.137Z,94545.92
2018-05-02T18:59:28.858Z,94549.26
2018-05-02T19:01:57.488Z,94554.84
2018-05-02T19:04:26.095Z,94552.84
2018-05-02T19:06:54.711Z,94554.83
2018-05-02T19:09:23.263Z,94553.12
2018-05-02T19:11:51.834Z,94553.87
2018-05-02T19:14:20.391Z,94552.15
2018-05-02T19:16:49.112Z,94551.20
2018-05-02T19:19:22.990Z,94552.67
2018-05-02T19:21:51.587Z,94557.07
2018-05-02T19:24:20.846Z,94558.52
2018-05-02T19:26:49.420Z,94560.11
2018-05-02T19:29:17.990Z,94557.17
2018-05-02T19:31:52.024Z,94558.23
2018-05-02T19:34:20.611Z,94555.20
2018-05-02T19:36:49.214Z,94553.19
2018-05-02T19:39:17.778Z,94557.45
2018-05-02T19:41:51.701Z,94564.08
2018-05-02T19:44:20.338Z,94556.23
2018-05-02T19:46:49.388Z,94556.88
2018-05-02T19:49:17.956Z,94552.22
2018-05-02T19:51:51.794Z,94539.73
2018-05-02T19:54:20.358Z,94535.19
2018-05-02T19:56:49.476Z,94542.53
2018-05-02T19:59:18.027Z,94532.67
2018-05-02T20:01:51.942Z,94535.19
2018-05-02T20:04:20.499Z,94537.85
2018-05-02T20:06:49.067Z,94533.20
2018-05-02T20:09:23.182Z,94537.88
2018-05-02T20:14:56.842Z,94531.97
2018-05-02T20:17:25.431Z,94538.77
2018-05-02T20:19:54.000Z,94530.36
2018-05-02T20:22:22.575Z,94531.27
2018-05-02T20:24:51.179Z,94531.67
2018-05-02T20:27:19.760Z,94533.29
2018-05-02T20:29:48.360Z,94537.68
2018-05-02T20:32:16.949Z,94530.48
2018-05-02T20:34:45.519Z,94531.80
2018-05-02T20:37:15.015Z,94534.33
2018-05-02T20:39:43.612Z,94528.59
2018-05-02T20:42:12.222Z,94529.54
2018-05-02T20:44:40.794Z,94528.06
2018-05-02T20:47:09.046Z,94527.66
2018-05-02T20:49:37.595Z,94525.67
2018-05-02T20:52:06.185Z,94533.91
2018-05-02T20:54:34.755Z,94529.39
2018-05-02T20:57:03.329Z,94532.30
2018-05-02T20:59:31.913Z,94533.59
2018-05-02T21:02:00.486Z,94533.16
2018-05-02T21:04:29.060Z,94540.86
2018-05-02T21:06:57.613Z,94539.88
2018-05-02T21:09:26.164Z,94539.48
2018-05-02T21:11:54.775Z,94540.27
2018-05-02T21:14:23.344Z,94545.92
2018-05-02T21:16:52.100Z,94554.95
2018-05-02T21:19:20.664Z,94557.87
2018-05-02T21:21:49.222Z,94555.16
2018-05-02T21:24:17.783Z,94555.03
2018-05-02T21:26:46.355Z,94562.09
2018-05-02T21:29:14.922Z,94559.41
2018-05-02T21:31:43.487Z,94556.79
2018-05-02T21:34:12.039Z,94560.83
2018-05-02T21:36:40.615Z,94560.83
2018-05-02T21:39:09.176Z,94561.19
2018-05-02T21:41:37.788Z,94561.84
2018-05-02T21:44:06.339Z,94564.16
2018-05-02T21:46:34.904Z,94562.52
2018-05-02T21:49:03.488Z,94554.66
2018-05-02T21:51:32.043Z,94565.80
2018-05-02T21:54:00.605Z,94559.53
2018-05-02T21:56:29.203Z,94557.64
2018-05-02T21:58:57.756Z,94564.66
2018-05-02T22:01:26.338Z,94559.77
2018-05-02T22:03:54.895Z,94555.11
2018-05-02T22:06:23.505Z,94565.63
2018-05-02T22:08:52.059Z,94556.72
2018-05-02T22:11:20.661Z,94553.36
2018-05-02T22:13:49.227Z,94555.80
2018-05-02T22:16:17.780Z,94561.25
2018-05-02T22:18:46.381Z,94565.27
2018-05-02T22:21:14.939Z,94563.89
2018-05-02T22:23:43.495Z,94552.50
2018-05-02T22:26:12.055Z,94558.24
2018-05-02T22:28:40.648Z,94550.18
2018-05-02T22:31:09.249Z,94548.53
2018-05-02T22:33:37.817Z,94545.59
2018-05-02T22:36:06.514Z,94550.54
2018-05-02T22:38:35.087Z,94548.02
2018-05-02T22:41:03.681Z,94546.44
2018-05-02T22:43:32.243Z,94553.75
2018-05-02T22:46:02.715Z,94550.86
2018-05-02T22:48:31.266Z,94548.38
2018-05-02T22:50:59.835Z,94544.51
2018-05-02T22:53:28.388Z,94546.00
2018-05-02T22:55:56.987Z,94546.84
2018-05-02T22:58:25.591Z,94545.23
2018-05-02T23:00:54.222Z,94550.05
2018-05-02T23:03:22.774Z,94546.72
2018-05-02T23:05:51.329Z,94549.16
2018-05-02T23:08:19.942Z,94549.73
2018-05-02T23:10:48.502Z,94546.84
2018-05-02T23:13:17.065Z,94553.98
2018-05-02T23:15:45.708Z,94548.53
2018-05-02T23:18:14.335Z,94547.33
2018-05-02T23:20:43.032Z,94546.47
2018-05-02T23:23:11.587Z,94545.19
2018-05-02T23:25:40.173Z,94541.47
2018-05-02T23:28:08.736Z,94540.94
2018-05-02T23:30:37.340Z,94538.41
2018-05-02T23:33:05.910Z,94534.31
2018-05-02T23:35:34.506Z,94545.19
2018-05-02T23:38:03.060Z,94541.06
2018-05-02T23:40:31.678Z,94539.73
2018-05-02T23:43:00.241Z,94537.16
2018-05-02T23:45:28.811Z,94538.16
2018-05-02T23:47:57.377Z,94540.30
2018-05-02T23:50:25.935Z,94541.77
2018-05-02T23:52:54.542Z,94536.19
2018-05-02T23:55:23.105Z,94540.17
2018-05-02T23:57:51.676Z,94539.23
